Berens River, Canada
Current Conditions -  °F | °C
As of 2:00 AM on Friday 28 Nov 2014 (Local Time) from CYNE Reporting Station
Clear Clear  
Wind Chill: -13°   Ceiling: Unl
Heat Index: -13°   Visibility: 9mi
Dew Point: -18°   Wind: 3mph
Humidity: 77%   Direction: 340°NNW
Pressure: 30.18"   Gusts: NA
Location:  52.37°N, 97.03°W
Report Text: CYNE 280800Z AUTO 34003KT 9SM CLR M25/M28 A3018 RMK SLP247
Loading
Personal Weather Stations






























Interactive Weather Map New forecast layout! Learn more

10-Day Weather Forecast

Advertisements
Track Severe Weather on mobile